sensor_id;sensor_type;location;lat;lon;timestamp;pressure;altitude;pressure_sealevel;temperature;humidity
57442;BME280;43284;47.042;15.498;2023-05-10T00:01:42;97095.50;;;7.26;91.32
57442;BME280;43284;47.042;15.498;2023-05-10T00:04:08;97090.16;;;7.29;93.71
57442;BME280;43284;47.042;15.498;2023-05-10T00:06:33;97094.56;;;7.27;92.83
57442;BME280;43284;47.042;15.498;2023-05-10T00:08:59;97083.97;;;7.08;90.98
57442;BME280;43284;47.042;15.498;2023-05-10T00:11:25;97090.53;;;6.95;89.27
57442;BME280;43284;47.042;15.498;2023-05-10T00:13:50;97082.97;;;6.89;89.70
57442;BME280;43284;47.042;15.498;2023-05-10T00:16:16;97085.78;;;6.83;89.71
57442;BME280;43284;47.042;15.498;2023-05-10T00:18:41;97079.50;;;6.88;88.87
57442;BME280;43284;47.042;15.498;2023-05-10T00:21:07;97079.84;;;6.79;89.12
57442;BME280;43284;47.042;15.498;2023-05-10T00:23:32;97072.31;;;6.71;90.14
57442;BME280;43284;47.042;15.498;2023-05-10T00:25:58;97074.13;;;6.69;90.96
57442;BME280;43284;47.042;15.498;2023-05-10T00:28:23;97075.91;;;6.67;90.60
57442;BME280;43284;47.042;15.498;2023-05-10T00:30:49;97070.56;;;6.72;93.81
57442;BME280;43284;47.042;15.498;2023-05-10T00:33:14;97067.63;;;6.81;95.62
57442;BME280;43284;47.042;15.498;2023-05-10T00:35:40;97065.94;;;6.55;92.14
57442;BME280;43284;47.042;15.498;2023-05-10T00:38:06;97065.66;;;6.37;90.75
57442;BME280;43284;47.042;15.498;2023-05-10T00:40:32;97070.59;;;6.45;93.60
57442;BME280;43284;47.042;15.498;2023-05-10T00:42:57;97063.03;;;6.64;96.53
57442;BME280;43284;47.042;15.498;2023-05-10T00:45:25;97056.34;;;6.57;94.66
57442;BME280;43284;47.042;15.498;2023-05-10T00:47:51;97054.84;;;6.75;97.60
57442;BME280;43284;47.042;15.498;2023-05-10T00:50:21;97056.56;;;6.76;96.94
57442;BME280;43284;47.042;15.498;2023-05-10T00:52:47;97045.75;;;6.63;94.73
57442;BME280;43284;47.042;15.498;2023-05-10T00:55:12;97047.81;;;6.53;93.62
57442;BME280;43284;47.042;15.498;2023-05-10T00:57:38;97043.78;;;6.45;92.38
57442;BME280;43284;47.042;15.498;2023-05-10T01:00:05;97043.78;;;6.45;94.92
57442;BME280;43284;47.042;15.498;2023-05-10T01:02:30;97045.97;;;6.57;97.12
57442;BME280;43284;47.042;15.498;2023-05-10T01:04:56;97050.50;;;6.50;96.22
57442;BME280;43284;47.042;15.498;2023-05-10T01:07:21;97043.59;;;6.49;96.06
57442;BME280;43284;47.042;15.498;2023-05-10T01:09:47;97048.41;;;6.62;96.81
57442;BME280;43284;47.042;15.498;2023-05-10T01:12:14;97035.47;;;6.35;92.84
57442;BME280;43284;47.042;15.498;2023-05-10T01:14:40;97037.91;;;6.39;94.83
57442;BME280;43284;47.042;15.498;2023-05-10T01:17:06;97031.50;;;6.50;96.32
57442;BME280;43284;47.042;15.498;2023-05-10T01:19:34;97037.78;;;6.43;95.46
57442;BME280;43284;47.042;15.498;2023-05-10T01:28:04;97039.16;;;6.53;97.94
57442;BME280;43284;47.042;15.498;2023-05-10T01:33:43;97024.78;;;6.17;93.26
57442;BME280;43284;47.042;15.498;2023-05-10T01:36:40;97021.25;;;6.20;92.78
57442;BME280;43284;47.042;15.498;2023-05-10T01:39:10;97022.75;;;6.01;90.82
57442;BME280;43284;47.042;15.498;2023-05-10T01:41:54;97024.66;;;5.95;93.53
57442;BME280;43284;47.042;15.498;2023-05-10T01:44:42;97015.97;;;5.96;93.16
57442;BME280;43284;47.042;15.498;2023-05-10T01:47:44;97019.78;;;5.85;92.46
57442;BME280;43284;47.042;15.498;2023-05-10T01:50:30;97021.03;;;5.73;92.13
57442;BME280;43284;47.042;15.498;2023-05-10T01:52:58;97025.16;;;5.78;94.97
57442;BME280;43284;47.042;15.498;2023-05-10T01:55:29;97016.38;;;5.83;95.11
57442;BME280;43284;47.042;15.498;2023-05-10T01:58:03;97016.53;;;5.78;93.78
57442;BME280;43284;47.042;15.498;2023-05-10T02:00:29;97011.00;;;5.62;92.75
57442;BME280;43284;47.042;15.498;2023-05-10T02:02:57;97012.72;;;5.62;92.89
57442;BME280;43284;47.042;15.498;2023-05-10T02:05:24;97012.00;;;5.56;92.71
57442;BME280;43284;47.042;15.498;2023-05-10T02:07:51;97016.22;;;5.61;94.28
57442;BME280;43284;47.042;15.498;2023-05-10T02:10:17;97014.97;;;5.72;97.40
57442;BME280;43284;47.042;15.498;2023-05-10T02:12:45;97011.31;;;5.80;97.97
57442;BME280;43284;47.042;15.498;2023-05-10T02:15:12;97011.81;;;5.63;95.23
57442;BME280;43284;47.042;15.498;2023-05-10T02:17:41;97004.50;;;5.75;98.28
57442;BME280;43284;47.042;15.498;2023-05-10T02:20:08;97005.09;;;5.84;98.57
57442;BME280;43284;47.042;15.498;2023-05-10T02:22:35;97007.28;;;5.69;96.12
57442;BME280;43284;47.042;15.498;2023-05-10T02:25:03;97007.53;;;5.62;94.76
57442;BME280;43284;47.042;15.498;2023-05-10T02:27:29;97002.81;;;5.46;93.54
57442;BME280;43284;47.042;15.498;2023-05-10T02:29:56;97001.91;;;5.49;93.69
57442;BME280;43284;47.042;15.498;2023-05-10T02:32:25;96994.38;;;5.40;93.75
57442;BME280;43284;47.042;15.498;2023-05-10T02:34:52;96999.38;;;5.46;96.35
57442;BME280;43284;47.042;15.498;2023-05-10T02:37:21;96995.91;;;5.47;96.37
57442;BME280;43284;47.042;15.498;2023-05-10T02:39:52;96996.34;;;5.60;98.38
57442;BME280;43284;47.042;15.498;2023-05-10T02:42:24;96995.97;;;5.44;95.63
57442;BME280;43284;47.042;15.498;2023-05-10T02:44:53;96992.06;;;5.58;98.67
57442;BME280;43284;47.042;15.498;2023-05-10T02:47:21;96995.75;;;5.51;97.23
57442;BME280;43284;47.042;15.498;2023-05-10T02:49:47;96995.19;;;5.42;95.08
57442;BME280;43284;47.042;15.498;2023-05-10T02:52:16;97000.00;;;5.26;92.96
57442;BME280;43284;47.042;15.498;2023-05-10T02:54:45;97009.59;;;5.22;93.50
57442;BME280;43284;47.042;15.498;2023-05-10T02:57:16;97005.38;;;5.18;93.65
57442;BME280;43284;47.042;15.498;2023-05-10T02:59:45;96998.69;;;5.11;93.12
57442;BME280;43284;47.042;15.498;2023-05-10T03:02:14;96999.59;;;5.10;94.35
57442;BME280;43284;47.042;15.498;2023-05-10T03:04:39;97006.50;;;5.09;93.56
57442;BME280;43284;47.042;15.498;2023-05-10T03:07:05;97002.25;;;5.07;92.94
57442;BME280;43284;47.042;15.498;2023-05-10T03:09:31;96999.75;;;5.05;93.03
57442;BME280;43284;47.042;15.498;2023-05-10T03:12:25;97001.53;;;5.03;94.46
57442;BME280;43284;47.042;15.498;2023-05-10T03:15:13;97001.38;;;5.08;95.69
57442;BME280;43284;47.042;15.498;2023-05-10T03:17:56;97000.44;;;5.10;95.62
57442;BME280;43284;47.042;15.498;2023-05-10T03:20:26;97001.94;;;5.18;96.26
57442;BME280;43284;47.042;15.498;2023-05-10T03:25:43;97000.72;;;5.01;94.73
57442;BME280;43284;47.042;15.498;2023-05-10T03:28:09;97001.28;;;5.11;96.93
57442;BME280;43284;47.042;15.498;2023-05-10T03:30:35;96997.41;;;5.26;99.49
57442;BME280;43284;47.042;15.498;2023-05-10T03:33:07;96998.56;;;5.15;98.08
57442;BME280;43284;47.042;15.498;2023-05-10T03:35:33;97003.41;;;5.26;99.26
57442;BME280;43284;47.042;15.498;2023-05-10T03:37:58;96999.94;;;5.27;98.56
57442;BME280;43284;47.042;15.498;2023-05-10T03:40:25;97000.66;;;5.32;99.22
57442;BME280;43284;47.042;15.498;2023-05-10T03:42:51;97002.34;;;5.33;98.43
57442;BME280;43284;47.042;15.498;2023-05-10T03:45:17;96997.69;;;5.16;96.44
57442;BME280;43284;47.042;15.498;2023-05-10T03:47:42;97006.03;;;4.97;94.76
57442;BME280;43284;47.042;15.498;2023-05-10T03:50:08;97011.16;;;4.98;95.79
57442;BME280;43284;47.042;15.498;2023-05-10T03:52:33;97010.44;;;4.93;94.12
57442;BME280;43284;47.042;15.498;2023-05-10T03:54:59;97024.34;;;4.90;94.52
57442;BME280;43284;47.042;15.498;2023-05-10T03:57:24;97009.69;;;4.89;94.67
57442;BME280;43284;47.042;15.498;2023-05-10T03:59:50;97008.75;;;4.92;95.77
57442;BME280;43284;47.042;15.498;2023-05-10T04:02:15;97009.50;;;4.95;96.37
57442;BME280;43284;47.042;15.498;2023-05-10T04:04:41;97008.44;;;5.03;97.54
57442;BME280;43284;47.042;15.498;2023-05-10T04:07:07;97013.59;;;5.03;96.82
57442;BME280;43284;47.042;15.498;2023-05-10T04:09:32;97012.41;;;5.14;98.49
57442;BME280;43284;47.042;15.498;2023-05-10T04:11:59;97010.81;;;5.10;97.56
57442;BME280;43284;47.042;15.498;2023-05-10T04:14:25;97018.69;;;5.07;96.58
57442;BME280;43284;47.042;15.498;2023-05-10T04:16:51;97016.88;;;5.09;97.16
57442;BME280;43284;47.042;15.498;2023-05-10T04:19:16;97014.72;;;5.24;99.62
57442;BME280;43284;47.042;15.498;2023-05-10T04:21:42;97015.88;;;5.43;100.00
57442;BME280;43284;47.042;15.498;2023-05-10T04:24:07;97008.88;;;5.47;100.00
57442;BME280;43284;47.042;15.498;2023-05-10T04:26:33;97014.28;;;5.39;100.00
57442;BME280;43284;47.042;15.498;2023-05-10T04:28:58;97020.59;;;5.30;98.67
57442;BME280;43284;47.042;15.498;2023-05-10T04:31:24;97020.22;;;5.43;100.00
57442;BME280;43284;47.042;15.498;2023-05-10T04:33:49;97017.88;;;5.33;99.04
57442;BME280;43284;47.042;15.498;2023-05-10T04:36:15;97019.75;;;5.30;98.21
57442;BME280;43284;47.042;15.498;2023-05-10T04:38:40;97023.06;;;5.33;98.38
57442;BME280;43284;47.042;15.498;2023-05-10T04:41:07;97024.00;;;5.31;97.73
57442;BME280;43284;47.042;15.498;2023-05-10T04:43:33;97023.97;;;5.32;97.93
57442;BME280;43284;47.042;15.498;2023-05-10T04:45:59;97022.16;;;5.36;98.62
57442;BME280;43284;47.042;15.498;2023-05-10T04:48:24;97026.28;;;5.42;98.96
57442;BME280;43284;47.042;15.498;2023-05-10T04:50:50;97021.84;;;5.47;99.14
57442;BME280;43284;47.042;15.498;2023-05-10T04:53:15;97018.09;;;5.55;99.64
57442;BME280;43284;47.042;15.498;2023-05-10T04:55:41;97027.19;;;5.69;100.00
57442;BME280;43284;47.042;15.498;2023-05-10T04:58:06;97027.19;;;5.69;100.00
57442;BME280;43284;47.042;15.498;2023-05-10T05:00:33;97029.47;;;5.80;100.00
57442;BME280;43284;47.042;15.498;2023-05-10T05:02:58;97032.75;;;5.85;100.00
57442;BME280;43284;47.042;15.498;2023-05-10T05:05:24;97030.28;;;5.80;99.95
57442;BME280;43284;47.042;15.498;2023-05-10T05:07:50;97032.78;;;5.83;100.00
57442;BME280;43284;47.042;15.498;2023-05-10T05:10:16;97027.41;;;5.89;100.00
57442;BME280;43284;47.042;15.498;2023-05-10T05:12:41;97027.28;;;5.92;100.00
57442;BME280;43284;47.042;15.498;2023-05-10T05:15:07;97028.13;;;5.94;100.00
57442;BME280;43284;47.042;15.498;2023-05-10T05:17:34;97032.41;;;5.97;100.00
57442;BME280;43284;47.042;15.498;2023-05-10T05:19:59;97034.03;;;6.00;100.00
57442;BME280;43284;47.042;15.498;2023-05-10T05:22:25;97031.34;;;6.03;100.00
57442;BME280;43284;47.042;15.498;2023-05-10T05:24:53;97031.09;;;6.10;100.00
57442;BME280;43284;47.042;15.498;2023-05-10T05:27:19;97037.00;;;6.14;100.00
57442;BME280;43284;47.042;15.498;2023-05-10T05:29:46;97044.59;;;6.20;100.00
57442;BME280;43284;47.042;15.498;2023-05-10T05:32:11;97033.25;;;6.23;100.00
57442;BME280;43284;47.042;15.498;2023-05-10T05:34:37;97034.81;;;6.28;100.00
57442;BME280;43284;47.042;15.498;2023-05-10T05:37:03;97041.53;;;6.34;100.00
57442;BME280;43284;47.042;15.498;2023-05-10T05:39:28;97039.56;;;6.40;100.00
57442;BME280;43284;47.042;15.498;2023-05-10T05:41:54;97044.47;;;6.50;100.00
57442;BME280;43284;47.042;15.498;2023-05-10T05:44:20;97047.59;;;6.59;100.00
57442;BME280;43284;47.042;15.498;2023-05-10T05:46:45;97042.16;;;6.67;100.00
57442;BME280;43284;47.042;15.498;2023-05-10T05:49:10;97049.66;;;6.75;100.00
57442;BME280;43284;47.042;15.498;2023-05-10T05:51:36;97047.47;;;6.88;100.00
57442;BME280;43284;47.042;15.498;2023-05-10T05:54:01;97042.88;;;6.96;100.00
57442;BME280;43284;47.042;15.498;2023-05-10T05:56:29;97045.97;;;7.06;100.00
57442;BME280;43284;47.042;15.498;2023-05-10T05:58:55;97045.63;;;7.15;100.00
57442;BME280;43284;47.042;15.498;2023-05-10T06:01:20;97048.53;;;7.31;100.00
57442;BME280;43284;47.042;15.498;2023-05-10T06:03:46;97045.44;;;7.43;100.00
57442;BME280;43284;47.042;15.498;2023-05-10T06:06:11;97050.13;;;7.57;100.00
57442;BME280;43284;47.042;15.498;2023-05-10T06:08:37;97054.00;;;7.69;100.00
57442;BME280;43284;47.042;15.498;2023-05-10T06:11:03;97047.47;;;7.80;100.00
57442;BME280;43284;47.042;15.498;2023-05-10T06:13:29;97055.63;;;7.93;100.00
57442;BME280;43284;47.042;15.498;2023-05-10T06:15:58;97051.63;;;8.07;100.00
57442;BME280;43284;47.042;15.498;2023-05-10T06:18:24;97056.81;;;8.29;99.71
57442;BME280;43284;47.042;15.498;2023-05-10T06:20:50;97057.19;;;8.41;99.35
57442;BME280;43284;47.042;15.498;2023-05-10T06:23:16;97055.72;;;8.56;99.49
57442;BME280;43284;47.042;15.498;2023-05-10T06:25:42;97064.69;;;8.70;99.54
57442;BME280;43284;47.042;15.498;2023-05-10T06:28:07;97054.47;;;8.85;98.72
57442;BME280;43284;47.042;15.498;2023-05-10T06:30:33;97062.00;;;8.92;97.32
57442;BME280;43284;47.042;15.498;2023-05-10T06:32:58;97057.03;;;9.06;97.27
57442;BME280;43284;47.042;15.498;2023-05-10T06:35:24;97057.34;;;9.19;96.76
57442;BME280;43284;47.042;15.498;2023-05-10T06:37:50;97057.56;;;9.33;95.82
57442;BME280;43284;47.042;15.498;2023-05-10T06:40:16;97048.41;;;9.43;93.21
57442;BME280;43284;47.042;15.498;2023-05-10T06:42:42;97054.41;;;9.64;91.69
57442;BME280;43284;47.042;15.498;2023-05-10T06:45:08;97043.88;;;9.66;89.24
57442;BME280;43284;47.042;15.498;2023-05-10T06:47:34;97042.31;;;9.81;87.98
57442;BME280;43284;47.042;15.498;2023-05-10T06:49:59;97043.44;;;9.94;89.04
57442;BME280;43284;47.042;15.498;2023-05-10T06:52:25;97051.34;;;10.10;86.74
57442;BME280;43284;47.042;15.498;2023-05-10T06:54:51;97039.63;;;10.19;84.12
57442;BME280;43284;47.042;15.498;2023-05-10T06:57:17;97032.00;;;10.33;83.01
57442;BME280;43284;47.042;15.498;2023-05-10T06:59:43;97030.44;;;10.46;82.86
57442;BME280;43284;47.042;15.498;2023-05-10T07:02:08;97036.22;;;10.53;81.18
57442;BME280;43284;47.042;15.498;2023-05-10T07:04:34;97029.59;;;10.63;80.20
57442;BME280;43284;47.042;15.498;2023-05-10T07:06:59;97028.38;;;10.70;79.15
57442;BME280;43284;47.042;15.498;2023-05-10T07:09:25;97026.03;;;10.82;79.27
57442;BME280;43284;47.042;15.498;2023-05-10T07:11:50;97030.47;;;10.97;81.38
57442;BME280;43284;47.042;15.498;2023-05-10T07:14:16;97027.28;;;11.08;81.33
57442;BME280;43284;47.042;15.498;2023-05-10T07:16:41;97026.06;;;11.15;79.08
57442;BME280;43284;47.042;15.498;2023-05-10T07:19:07;97023.78;;;11.25;78.49
57442;BME280;43284;47.042;15.498;2023-05-10T07:21:32;97024.06;;;11.36;77.90
57442;BME280;43284;47.042;15.498;2023-05-10T07:23:58;97021.88;;;11.44;76.79
57442;BME280;43284;47.042;15.498;2023-05-10T07:26:24;97022.19;;;11.54;76.36
57442;BME280;43284;47.042;15.498;2023-05-10T07:28:50;97025.94;;;11.66;76.59
57442;BME280;43284;47.042;15.498;2023-05-10T07:31:15;97026.25;;;11.75;76.33
57442;BME280;43284;47.042;15.498;2023-05-10T07:33:41;97029.38;;;11.82;75.53
57442;BME280;43284;47.042;15.498;2023-05-10T07:36:06;97020.38;;;11.88;74.17
57442;BME280;43284;47.042;15.498;2023-05-10T07:38:32;97024.34;;;11.95;74.33
57442;BME280;43284;47.042;15.498;2023-05-10T07:40:57;97024.25;;;11.97;73.95
57442;BME280;43284;47.042;15.498;2023-05-10T07:43:23;97027.38;;;12.03;72.11
57442;BME280;43284;47.042;15.498;2023-05-10T07:45:48;97029.97;;;12.19;72.22
57442;BME280;43284;47.042;15.498;2023-05-10T07:48:14;97027.28;;;12.35;72.20
57442;BME280;43284;47.042;15.498;2023-05-10T07:50:39;97028.66;;;12.26;71.79
57442;BME280;43284;47.042;15.498;2023-05-10T07:53:05;97025.91;;;12.44;73.52
57442;BME280;43284;47.042;15.498;2023-05-10T07:55:30;97027.97;;;12.39;70.81
57442;BME280;43284;47.042;15.498;2023-05-10T07:57:56;97028.50;;;12.60;71.46
57442;BME280;43284;47.042;15.498;2023-05-10T08:00:22;97027.88;;;12.70;71.32
57442;BME280;43284;47.042;15.498;2023-05-10T08:02:47;97025.25;;;12.70;70.04
57442;BME280;43284;47.042;15.498;2023-05-10T08:05:13;97026.75;;;12.89;72.07
57442;BME280;43284;47.042;15.498;2023-05-10T08:07:38;97028.91;;;12.96;70.86
57442;BME280;43284;47.042;15.498;2023-05-10T08:10:04;97028.19;;;12.94;69.48
57442;BME280;43284;47.042;15.498;2023-05-10T08:12:30;97023.59;;;12.98;67.70
57442;BME280;43284;47.042;15.498;2023-05-10T08:14:56;97030.13;;;13.05;68.84
57442;BME280;43284;47.042;15.498;2023-05-10T08:17:21;97031.19;;;13.17;67.70
57442;BME280;43284;47.042;15.498;2023-05-10T08:19:47;97025.56;;;13.23;66.83
57442;BME280;43284;47.042;15.498;2023-05-10T08:22:12;97031.94;;;13.33;66.73
57442;BME280;43284;47.042;15.498;2023-05-10T08:24:38;97026.41;;;13.38;65.91
57442;BME280;43284;47.042;15.498;2023-05-10T08:27:07;97023.63;;;13.41;65.32
57442;BME280;43284;47.042;15.498;2023-05-10T08:29:33;97021.63;;;13.59;65.19
57442;BME280;43284;47.042;15.498;2023-05-10T08:31:59;97018.41;;;13.68;64.08
57442;BME280;43284;47.042;15.498;2023-05-10T08:34:26;97018.44;;;13.39;66.77
57442;BME280;43284;47.042;15.498;2023-05-10T08:36:52;97023.78;;;13.38;66.10
57442;BME280;43284;47.042;15.498;2023-05-10T08:39:17;97020.69;;;13.60;67.39
57442;BME280;43284;47.042;15.498;2023-05-10T08:41:44;97017.34;;;13.71;62.96
57442;BME280;43284;47.042;15.498;2023-05-10T08:44:10;97022.06;;;13.80;63.40
57442;BME280;43284;47.042;15.498;2023-05-10T08:46:37;97021.16;;;13.94;64.98
57442;BME280;43284;47.042;15.498;2023-05-10T08:49:06;97017.41;;;13.98;62.82
57442;BME280;43284;47.042;15.498;2023-05-10T08:51:40;97013.03;;;14.11;63.91
57442;BME280;43284;47.042;15.498;2023-05-10T08:54:08;97018.06;;;14.14;62.62
57442;BME280;43284;47.042;15.498;2023-05-10T08:56:36;97026.59;;;14.18;63.14
57442;BME280;43284;47.042;15.498;2023-05-10T08:59:02;97022.75;;;14.24;62.72
57442;BME280;43284;47.042;15.498;2023-05-10T09:01:28;97018.75;;;14.04;61.55
57442;BME280;43284;47.042;15.498;2023-05-10T09:03:57;97016.13;;;14.31;61.23
57442;BME280;43284;47.042;15.498;2023-05-10T09:06:23;97011.53;;;14.47;63.01
57442;BME280;43284;47.042;15.498;2023-05-10T09:08:49;97011.81;;;14.57;61.86
57442;BME280;43284;47.042;15.498;2023-05-10T09:11:16;97009.94;;;14.72;61.83
57442;BME280;43284;47.042;15.498;2023-05-10T09:13:42;97013.09;;;14.77;61.73
57442;BME280;43284;47.042;15.498;2023-05-10T09:16:09;97016.22;;;14.82;61.05
57442;BME280;43284;47.042;15.498;2023-05-10T09:18:34;97013.28;;;14.87;61.22
57442;BME280;43284;47.042;15.498;2023-05-10T09:21:00;97009.59;;;15.02;60.67
57442;BME280;43284;47.042;15.498;2023-05-10T09:23:25;97009.31;;;15.07;60.65
57442;BME280;43284;47.042;15.498;2023-05-10T09:26:07;97006.88;;;15.16;58.04
57442;BME280;43284;47.042;15.498;2023-05-10T09:28:52;97006.88;;;15.16;57.95
57442;BME280;43284;47.042;15.498;2023-05-10T09:31:18;97002.66;;;15.14;58.76
57442;BME280;43284;47.042;15.498;2023-05-10T09:33:45;97013.81;;;15.17;59.87
57442;BME280;43284;47.042;15.498;2023-05-10T09:36:11;97013.50;;;15.22;59.77
57442;BME280;43284;47.042;15.498;2023-05-10T09:38:50;97007.94;;;15.01;59.61
57442;BME280;43284;47.042;15.498;2023-05-10T09:41:18;97004.13;;;15.18;57.94
57442;BME280;43284;47.042;15.498;2023-05-10T09:43:44;96998.13;;;15.29;58.74
57442;BME280;43284;47.042;15.498;2023-05-10T09:46:09;96988.84;;;15.36;57.23
57442;BME280;43284;47.042;15.498;2023-05-10T09:48:48;96988.81;;;15.49;55.42
57442;BME280;43284;47.042;15.498;2023-05-10T09:51:24;96987.91;;;15.74;58.13
57442;BME280;43284;47.042;15.498;2023-05-10T09:54:13;96983.50;;;15.98;58.59
57442;BME280;43284;47.042;15.498;2023-05-10T09:56:40;96989.38;;;16.26;58.95
57442;BME280;43284;47.042;15.498;2023-05-10T09:59:10;96982.28;;;16.26;51.87
57442;BME280;43284;47.042;15.498;2023-05-10T10:01:37;96980.75;;;16.35;50.65
57442;BME280;43284;47.042;15.498;2023-05-10T10:04:06;96982.19;;;16.28;50.45
57442;BME280;43284;47.042;15.498;2023-05-10T10:06:41;96983.28;;;16.37;52.65
57442;BME280;43284;47.042;15.498;2023-05-10T10:09:08;96977.66;;;16.41;51.95
57442;BME280;43284;47.042;15.498;2023-05-10T10:11:35;96975.50;;;16.11;52.22
57442;BME280;43284;47.042;15.498;2023-05-10T10:14:01;96979.88;;;16.23;51.88
57442;BME280;43284;47.042;15.498;2023-05-10T10:16:29;96970.13;;;16.48;52.78
57442;BME280;43284;47.042;15.498;2023-05-10T10:18:55;96972.19;;;16.44;51.35
57442;BME280;43284;47.042;15.498;2023-05-10T10:21:21;96960.81;;;16.55;53.93
57442;BME280;43284;47.042;15.498;2023-05-10T10:23:47;96966.34;;;16.75;54.58
57442;BME280;43284;47.042;15.498;2023-05-10T10:26:13;96964.25;;;16.91;53.30
57442;BME280;43284;47.042;15.498;2023-05-10T10:29:00;96959.59;;;17.06;53.32
57442;BME280;43284;47.042;15.498;2023-05-10T10:31:44;96955.84;;;17.20;54.20
57442;BME280;43284;47.042;15.498;2023-05-10T10:34:21;96961.25;;;17.18;52.65
57442;BME280;43284;47.042;15.498;2023-05-10T10:36:51;96956.97;;;16.59;51.42
57442;BME280;43284;47.042;15.498;2023-05-10T10:39:17;96953.94;;;16.99;53.62
57442;BME280;43284;47.042;15.498;2023-05-10T10:41:55;96957.41;;;17.00;51.70
57442;BME280;43284;47.042;15.498;2023-05-10T10:46:59;96960.66;;;17.26;52.58
57442;BME280;43284;47.042;15.498;2023-05-10T10:49:26;96952.50;;;17.18;51.57
57442;BME280;43284;47.042;15.498;2023-05-10T10:52:14;96958.00;;;17.26;51.70
57442;BME280;43284;47.042;15.498;2023-05-10T10:54:41;96956.94;;;17.28;51.91
57442;BME280;43284;47.042;15.498;2023-05-10T10:57:11;96950.09;;;17.26;54.06
57442;BME280;43284;47.042;15.498;2023-05-10T10:59:42;96956.56;;;17.11;51.81
57442;BME280;43284;47.042;15.498;2023-05-10T11:02:32;96956.94;;;17.17;52.62
57442;BME280;43284;47.042;15.498;2023-05-10T11:04:58;96959.31;;;17.09;52.83
57442;BME280;43284;47.042;15.498;2023-05-10T11:07:24;96955.50;;;17.02;52.61
57442;BME280;43284;47.042;15.498;2023-05-10T11:09:49;96949.97;;;17.05;53.06
57442;BME280;43284;47.042;15.498;2023-05-10T11:12:15;96948.94;;;16.61;52.47
57442;BME280;43284;47.042;15.498;2023-05-10T11:14:41;96948.31;;;16.11;54.51
57442;BME280;43284;47.042;15.498;2023-05-10T11:17:26;96956.91;;;16.37;54.45
57442;BME280;43284;47.042;15.498;2023-05-10T11:20:09;96944.78;;;16.34;53.84
57442;BME280;43284;47.042;15.498;2023-05-10T11:22:54;96954.78;;;16.18;54.32
57442;BME280;43284;47.042;15.498;2023-05-10T11:25:23;96951.63;;;16.37;55.59
57442;BME280;43284;47.042;15.498;2023-05-10T11:27:51;96935.16;;;16.22;53.32
57442;BME280;43284;47.042;15.498;2023-05-10T11:30:17;96938.78;;;16.32;55.12
57442;BME280;43284;47.042;15.498;2023-05-10T11:32:43;96942.78;;;16.38;54.23
57442;BME280;43284;47.042;15.498;2023-05-10T11:35:12;96941.09;;;16.37;54.54
57442;BME280;43284;47.042;15.498;2023-05-10T11:37:41;96942.44;;;16.42;53.87
57442;BME280;43284;47.042;15.498;2023-05-10T11:40:09;96945.63;;;16.35;52.65
57442;BME280;43284;47.042;15.498;2023-05-10T11:42:38;96939.63;;;16.33;53.21
57442;BME280;43284;47.042;15.498;2023-05-10T11:45:04;96936.44;;;16.40;53.25
57442;BME280;43284;47.042;15.498;2023-05-10T11:47:30;96940.41;;;16.11;52.43
57442;BME280;43284;47.042;15.498;2023-05-10T11:49:56;96938.41;;;16.25;54.94
57442;BME280;43284;47.042;15.498;2023-05-10T11:52:23;96928.94;;;16.23;53.22
57442;BME280;43284;47.042;15.498;2023-05-10T11:54:55;96929.31;;;16.30;53.51
57442;BME280;43284;47.042;15.498;2023-05-10T11:57:26;96931.84;;;16.31;53.45
57442;BME280;43284;47.042;15.498;2023-05-10T11:59:56;96932.91;;;16.28;53.81
57442;BME280;43284;47.042;15.498;2023-05-10T12:02:22;96928.81;;;16.24;53.11
57442;BME280;43284;47.042;15.498;2023-05-10T12:04:49;96931.84;;;16.31;54.80
57442;BME280;43284;47.042;15.498;2023-05-10T12:07:15;96930.59;;;16.24;53.32
57442;BME280;43284;47.042;15.498;2023-05-10T12:09:44;96930.03;;;16.20;53.18
57442;BME280;43284;47.042;15.498;2023-05-10T12:12:12;96933.25;;;16.24;53.47
57442;BME280;43284;47.042;15.498;2023-05-10T12:14:41;96935.06;;;16.23;53.65
57442;BME280;43284;47.042;15.498;2023-05-10T12:17:11;96935.41;;;16.19;53.89
57442;BME280;43284;47.042;15.498;2023-05-10T12:19:38;96935.47;;;16.06;51.94
57442;BME280;43284;47.042;15.498;2023-05-10T12:22:06;96939.06;;;16.05;52.76
57442;BME280;43284;47.042;15.498;2023-05-10T12:24:36;96935.19;;;15.98;55.02
57442;BME280;43284;47.042;15.498;2023-05-10T12:27:05;96935.03;;;15.88;55.20
57442;BME280;43284;47.042;15.498;2023-05-10T12:29:32;96937.69;;;15.88;55.81
57442;BME280;43284;47.042;15.498;2023-05-10T12:31:59;96938.75;;;15.85;54.42
57442;BME280;43284;47.042;15.498;2023-05-10T12:34:35;96933.13;;;15.90;54.08
57442;BME280;43284;47.042;15.498;2023-05-10T12:37:02;96931.34;;;15.91;53.98
57442;BME280;43284;47.042;15.498;2023-05-10T12:39:41;96933.72;;;15.94;54.45
57442;BME280;43284;47.042;15.498;2023-05-10T12:42:07;96933.53;;;15.97;57.00
57442;BME280;43284;47.042;15.498;2023-05-10T12:44:33;96936.88;;;15.99;56.64
57442;BME280;43284;47.042;15.498;2023-05-10T12:46:59;96930.25;;;15.93;56.26
57442;BME280;43284;47.042;15.498;2023-05-10T12:49:24;96929.44;;;15.93;54.18
57442;BME280;43284;47.042;15.498;2023-05-10T12:51:50;96932.91;;;15.93;54.55
57442;BME280;43284;47.042;15.498;2023-05-10T12:54:15;96934.69;;;15.93;55.16
57442;BME280;43284;47.042;15.498;2023-05-10T12:56:40;96935.31;;;15.96;56.42
57442;BME280;43284;47.042;15.498;2023-05-10T12:59:07;96932.69;;;15.96;56.51
57442;BME280;43284;47.042;15.498;2023-05-10T13:01:33;96931.97;;;15.94;56.18
57442;BME280;43284;47.042;15.498;2023-05-10T13:03:58;96932.91;;;15.93;54.88
57442;BME280;43284;47.042;15.498;2023-05-10T13:06:25;96938.16;;;15.93;55.16
57442;BME280;43284;47.042;15.498;2023-05-10T13:08:50;96932.56;;;15.98;54.78
57442;BME280;43284;47.042;15.498;2023-05-10T13:11:17;96922.16;;;15.96;55.64
57442;BME280;43284;47.042;15.498;2023-05-10T13:13:44;96934.69;;;15.93;55.63